sensor_id;sensor_type;location;lat;lon;timestamp;temperature;humidity
12847;DHT22;6492;48.128;8.320;2023-07-31T00:01:37;10.00;62.00
12847;DHT22;6492;48.128;8.320;2023-07-31T00:05:40;10.00;61.10
12847;DHT22;6492;48.128;8.320;2023-07-31T00:09:42;10.00;60.50
12847;DHT22;6492;48.128;8.320;2023-07-31T00:13:43;10.00;61.10
12847;DHT22;6492;48.128;8.320;2023-07-31T00:17:45;10.00;60.80
12847;DHT22;6492;48.128;8.320;2023-07-31T00:21:49;10.00;60.40
12847;DHT22;6492;48.128;8.320;2023-07-31T00:25:51;9.90;59.90
12847;DHT22;6492;48.128;8.320;2023-07-31T00:29:52;9.80;59.70
12847;DHT22;6492;48.128;8.320;2023-07-31T00:33:54;9.70;59.80
12847;DHT22;6492;48.128;8.320;2023-07-31T00:37:58;9.70;59.90
12847;DHT22;6492;48.128;8.320;2023-07-31T00:42:00;9.50;59.80
12847;DHT22;6492;48.128;8.320;2023-07-31T00:46:02;9.40;60.60
12847;DHT22;6492;48.128;8.320;2023-07-31T00:50:05;9.50;63.70
12847;DHT22;6492;48.128;8.320;2023-07-31T00:54:08;9.40;64.10
12847;DHT22;6492;48.128;8.320;2023-07-31T00:58:10;9.40;65.00
12847;DHT22;6492;48.128;8.320;2023-07-31T01:02:12;9.40;65.40
12847;DHT22;6492;48.128;8.320;2023-07-31T01:06:18;9.30;64.60
12847;DHT22;6492;48.128;8.320;2023-07-31T01:10:30;9.20;64.70
12847;DHT22;6492;48.128;8.320;2023-07-31T01:14:34;9.10;64.80
12847;DHT22;6492;48.128;8.320;2023-07-31T01:18:36;9.00;65.40
12847;DHT22;6492;48.128;8.320;2023-07-31T01:22:54;9.00;65.60
12847;DHT22;6492;48.128;8.320;2023-07-31T01:27:06;8.90;66.90
12847;DHT22;6492;48.128;8.320;2023-07-31T01:31:10;8.90;67.00
12847;DHT22;6492;48.128;8.320;2023-07-31T01:35:13;8.80;67.20
12847;DHT22;6492;48.128;8.320;2023-07-31T01:39:15;8.80;67.50
12847;DHT22;6492;48.128;8.320;2023-07-31T01:43:18;8.80;68.50
12847;DHT22;6492;48.128;8.320;2023-07-31T01:47:20;8.80;69.20
12847;DHT22;6492;48.128;8.320;2023-07-31T01:51:21;8.90;69.70
12847;DHT22;6492;48.128;8.320;2023-07-31T01:55:23;8.90;70.80
12847;DHT22;6492;48.128;8.320;2023-07-31T01:59:26;9.00;71.30
12847;DHT22;6492;48.128;8.320;2023-07-31T02:03:29;9.10;71.80
12847;DHT22;6492;48.128;8.320;2023-07-31T02:07:31;9.10;71.80
12847;DHT22;6492;48.128;8.320;2023-07-31T02:11:32;9.20;71.80
12847;DHT22;6492;48.128;8.320;2023-07-31T02:15:37;9.20;71.60
12847;DHT22;6492;48.128;8.320;2023-07-31T02:19:39;9.10;71.10
12847;DHT22;6492;48.128;8.320;2023-07-31T02:23:40;9.00;70.40
12847;DHT22;6492;48.128;8.320;2023-07-31T02:27:42;8.90;70.20
12847;DHT22;6492;48.128;8.320;2023-07-31T02:31:45;8.80;69.90
12847;DHT22;6492;48.128;8.320;2023-07-31T02:35:47;8.70;69.90
12847;DHT22;6492;48.128;8.320;2023-07-31T02:39:49;8.70;70.30
12847;DHT22;6492;48.128;8.320;2023-07-31T02:43:50;8.70;70.70
12847;DHT22;6492;48.128;8.320;2023-07-31T02:47:53;8.70;70.80
12847;DHT22;6492;48.128;8.320;2023-07-31T02:51:55;8.70;71.00
12847;DHT22;6492;48.128;8.320;2023-07-31T02:55:57;8.60;70.90
12847;DHT22;6492;48.128;8.320;2023-07-31T02:59:59;8.60;71.10
12847;DHT22;6492;48.128;8.320;2023-07-31T03:04:02;8.60;71.60
12847;DHT22;6492;48.128;8.320;2023-07-31T03:08:03;8.70;72.20
12847;DHT22;6492;48.128;8.320;2023-07-31T03:12:06;8.60;71.80
12847;DHT22;6492;48.128;8.320;2023-07-31T03:16:08;8.60;71.90
12847;DHT22;6492;48.128;8.320;2023-07-31T03:20:12;8.60;72.30
12847;DHT22;6492;48.128;8.320;2023-07-31T03:24:14;8.60;72.30
12847;DHT22;6492;48.128;8.320;2023-07-31T03:28:16;8.60;72.20
12847;DHT22;6492;48.128;8.320;2023-07-31T03:32:17;8.60;72.40
12847;DHT22;6492;48.128;8.320;2023-07-31T03:36:20;8.60;72.70
12847;DHT22;6492;48.128;8.320;2023-07-31T03:40:22;8.60;72.80
12847;DHT22;6492;48.128;8.320;2023-07-31T03:44:24;8.70;73.10
12847;DHT22;6492;48.128;8.320;2023-07-31T03:48:26;8.70;73.10
12847;DHT22;6492;48.128;8.320;2023-07-31T03:52:29;8.80;73.30
12847;DHT22;6492;48.128;8.320;2023-07-31T03:56:31;8.90;74.40
12847;DHT22;6492;48.128;8.320;2023-07-31T04:00:32;9.00;73.90
12847;DHT22;6492;48.128;8.320;2023-07-31T04:04:34;9.20;73.80
12847;DHT22;6492;48.128;8.320;2023-07-31T04:08:38;9.30;74.20
12847;DHT22;6492;48.128;8.320;2023-07-31T04:12:40;9.40;72.10
12847;DHT22;6492;48.128;8.320;2023-07-31T04:16:42;9.50;70.20
12847;DHT22;6492;48.128;8.320;2023-07-31T04:20:44;9.60;67.70
12847;DHT22;6492;48.128;8.320;2023-07-31T04:24:47;9.70;66.50
12847;DHT22;6492;48.128;8.320;2023-07-31T04:28:49;9.80;63.70
12847;DHT22;6492;48.128;8.320;2023-07-31T04:32:50;9.90;62.20
12847;DHT22;6492;48.128;8.320;2023-07-31T04:36:52;10.10;59.40
12847;DHT22;6492;48.128;8.320;2023-07-31T04:40:55;10.20;58.10
12847;DHT22;6492;48.128;8.320;2023-07-31T04:44:57;10.40;55.10
12847;DHT22;6492;48.128;8.320;2023-07-31T04:48:59;10.50;53.70
12847;DHT22;6492;48.128;8.320;2023-07-31T04:53:00;10.70;52.40
12847;DHT22;6492;48.128;8.320;2023-07-31T04:57:04;10.80;51.00
12847;DHT22;6492;48.128;8.320;2023-07-31T05:01:07;10.90;48.00
12847;DHT22;6492;48.128;8.320;2023-07-31T05:05:08;11.10;46.30
12847;DHT22;6492;48.128;8.320;2023-07-31T05:09:10;11.20;43.40
12847;DHT22;6492;48.128;8.320;2023-07-31T05:13:14;11.30;42.50
12847;DHT22;6492;48.128;8.320;2023-07-31T05:17:15;11.40;43.00
12847;DHT22;6492;48.128;8.320;2023-07-31T05:21:17;11.40;42.20
12847;DHT22;6492;48.128;8.320;2023-07-31T05:25:19;11.50;39.60
12847;DHT22;6492;48.128;8.320;2023-07-31T05:29:22;11.70;39.30
12847;DHT22;6492;48.128;8.320;2023-07-31T05:33:24;11.80;38.20
12847;DHT22;6492;48.128;8.320;2023-07-31T05:37:25;12.00;36.50
12847;DHT22;6492;48.128;8.320;2023-07-31T05:41:27;12.10;34.70
12847;DHT22;6492;48.128;8.320;2023-07-31T05:45:30;12.30;34.40
12847;DHT22;6492;48.128;8.320;2023-07-31T05:49:32;12.40;32.20
12847;DHT22;6492;48.128;8.320;2023-07-31T05:53:34;12.50;31.50
12847;DHT22;6492;48.128;8.320;2023-07-31T05:57:38;12.60;30.50
12847;DHT22;6492;48.128;8.320;2023-07-31T06:01:42;12.80;30.00
12847;DHT22;6492;48.128;8.320;2023-07-31T06:05:43;12.90;29.60
12847;DHT22;6492;48.128;8.320;2023-07-31T06:09:45;12.90;29.70
12847;DHT22;6492;48.128;8.320;2023-07-31T06:13:47;13.00;29.00
12847;DHT22;6492;48.128;8.320;2023-07-31T06:17:51;13.00;28.60
12847;DHT22;6492;48.128;8.320;2023-07-31T06:21:52;13.10;29.40
12847;DHT22;6492;48.128;8.320;2023-07-31T06:25:54;13.30;29.40
12847;DHT22;6492;48.128;8.320;2023-07-31T06:29:56;13.40;28.00
12847;DHT22;6492;48.128;8.320;2023-07-31T06:33:59;13.50;27.60
12847;DHT22;6492;48.128;8.320;2023-07-31T06:38:01;13.60;25.60
12847;DHT22;6492;48.128;8.320;2023-07-31T06:42:04;13.80;25.00
12847;DHT22;6492;48.128;8.320;2023-07-31T06:46:06;14.20;24.00
12847;DHT22;6492;48.128;8.320;2023-07-31T06:50:10;14.60;22.70
12847;DHT22;6492;48.128;8.320;2023-07-31T06:54:12;15.00;22.10
12847;DHT22;6492;48.128;8.320;2023-07-31T06:58:14;15.10;19.40
12847;DHT22;6492;48.128;8.320;2023-07-31T07:02:16;14.90;19.30
12847;DHT22;6492;48.128;8.320;2023-07-31T07:06:19;14.70;20.20
12847;DHT22;6492;48.128;8.320;2023-07-31T07:10:21;14.60;20.30
12847;DHT22;6492;48.128;8.320;2023-07-31T07:14:22;14.60;21.30
12847;DHT22;6492;48.128;8.320;2023-07-31T07:18:24;14.80;20.50
12847;DHT22;6492;48.128;8.320;2023-07-31T07:22:27;15.00;20.20
12847;DHT22;6492;48.128;8.320;2023-07-31T07:26:29;15.20;18.70
12847;DHT22;6492;48.128;8.320;2023-07-31T07:30:31;15.30;18.70
12847;DHT22;6492;48.128;8.320;2023-07-31T07:34:32;15.40;17.80
12847;DHT22;6492;48.128;8.320;2023-07-31T07:38:36;15.30;18.30
12847;DHT22;6492;48.128;8.320;2023-07-31T07:42:39;15.30;17.10
12847;DHT22;6492;48.128;8.320;2023-07-31T07:46:41;15.40;18.30
12847;DHT22;6492;48.128;8.320;2023-07-31T07:50:43;16.10;16.20
12847;DHT22;6492;48.128;8.320;2023-07-31T07:54:46;17.40;13.70
12847;DHT22;6492;48.128;8.320;2023-07-31T07:58:48;18.90;7.10
12847;DHT22;6492;48.128;8.320;2023-07-31T08:02:50;19.40;3.40
12847;DHT22;6492;48.128;8.320;2023-07-31T08:06:52;19.90;4.50
12847;DHT22;6492;48.128;8.320;2023-07-31T08:10:55;19.80;1.80
12847;DHT22;6492;48.128;8.320;2023-07-31T08:14:57;19.20;3.00
12847;DHT22;6492;48.128;8.320;2023-07-31T08:19:00;18.70;4.50
12847;DHT22;6492;48.128;8.320;2023-07-31T08:23:02;18.50;5.10
12847;DHT22;6492;48.128;8.320;2023-07-31T08:27:06;18.90;5.00
12847;DHT22;6492;48.128;8.320;2023-07-31T08:31:08;19.40;3.80
12847;DHT22;6492;48.128;8.320;2023-07-31T08:35:09;20.10;2.70
12847;DHT22;6492;48.128;8.320;2023-07-31T08:39:11;20.10;3.40
12847;DHT22;6492;48.128;8.320;2023-07-31T08:43:14;20.20;1.00
12847;DHT22;6492;48.128;8.320;2023-07-31T08:47:16;20.30;1.00
12847;DHT22;6492;48.128;8.320;2023-07-31T08:51:19;20.40;1.30
12847;DHT22;6492;48.128;8.320;2023-07-31T08:55:21;20.70;1.00
12847;DHT22;6492;48.128;8.320;2023-07-31T08:59:25;21.00;1.00
12847;DHT22;6492;48.128;8.320;2023-07-31T09:03:29;21.00;1.00
12847;DHT22;6492;48.128;8.320;2023-07-31T09:07:34;20.60;1.00
12847;DHT22;6492;48.128;8.320;2023-07-31T09:11:36;20.40;1.00
12847;DHT22;6492;48.128;8.320;2023-07-31T09:15:40;20.90;1.00
12847;DHT22;6492;48.128;8.320;2023-07-31T09:19:45;21.10;1.00
12847;DHT22;6492;48.128;8.320;2023-07-31T09:23:47;21.30;1.00
12847;DHT22;6492;48.128;8.320;2023-07-31T09:27:50;21.80;1.00
12847;DHT22;6492;48.128;8.320;2023-07-31T09:31:54;21.80;1.00
12847;DHT22;6492;48.128;8.320;2023-07-31T09:35:58;21.90;1.00
12847;DHT22;6492;48.128;8.320;2023-07-31T09:40:01;22.20;1.00
12847;DHT22;6492;48.128;8.320;2023-07-31T09:44:03;23.10;1.00
12847;DHT22;6492;48.128;8.320;2023-07-31T09:48:09;23.50;1.00
12847;DHT22;6492;48.128;8.320;2023-07-31T09:52:12;23.30;1.00
12847;DHT22;6492;48.128;8.320;2023-07-31T09:56:16;23.60;1.00
12847;DHT22;6492;48.128;8.320;2023-07-31T10:00:20;23.80;1.00
12847;DHT22;6492;48.128;8.320;2023-07-31T10:04:28;24.00;1.00
12847;DHT22;6492;48.128;8.320;2023-07-31T10:08:32;23.50;1.00
12847;DHT22;6492;48.128;8.320;2023-07-31T10:12:37;23.10;1.00
12847;DHT22;6492;48.128;8.320;2023-07-31T10:16:39;23.00;1.00
12847;DHT22;6492;48.128;8.320;2023-07-31T10:20:45;23.00;1.00
12847;DHT22;6492;48.128;8.320;2023-07-31T10:24:49;22.90;1.00
12847;DHT22;6492;48.128;8.320;2023-07-31T10:28:52;22.70;1.00
12847;DHT22;6492;48.128;8.320;2023-07-31T10:32:56;22.40;1.00
12847;DHT22;6492;48.128;8.320;2023-07-31T10:41:31;22.90;1.00
12847;DHT22;6492;48.128;8.320;2023-07-31T10:45:34;23.00;1.00
12847;DHT22;6492;48.128;8.320;2023-07-31T10:49:39;23.50;1.00
12847;DHT22;6492;48.128;8.320;2023-07-31T10:53:40;24.30;1.00
12847;DHT22;6492;48.128;8.320;2023-07-31T10:57:47;24.40;1.00
12847;DHT22;6492;48.128;8.320;2023-07-31T11:01:52;24.20;1.00
12847;DHT22;6492;48.128;8.320;2023-07-31T11:06:00;24.40;1.00
12847;DHT22;6492;48.128;8.320;2023-07-31T11:10:04;24.20;1.00
12847;DHT22;6492;48.128;8.320;2023-07-31T11:14:10;23.90;1.00
12847;DHT22;6492;48.128;8.320;2023-07-31T11:18:12;23.50;1.00
12847;DHT22;6492;48.128;8.320;2023-07-31T11:22:14;23.70;1.00
12847;DHT22;6492;48.128;8.320;2023-07-31T11:26:16;24.00;1.00
12847;DHT22;6492;48.128;8.320;2023-07-31T11:30:20;23.90;1.00
12847;DHT22;6492;48.128;8.320;2023-07-31T11:34:22;23.80;1.00
12847;DHT22;6492;48.128;8.320;2023-07-31T11:38:25;24.10;1.00
12847;DHT22;6492;48.128;8.320;2023-07-31T11:42:27;24.80;1.00
12847;DHT22;6492;48.128;8.320;2023-07-31T11:46:31;25.40;1.00
12847;DHT22;6492;48.128;8.320;2023-07-31T11:50:35;25.40;1.00
12847;DHT22;6492;48.128;8.320;2023-07-31T11:54:39;25.00;1.00
12847;DHT22;6492;48.128;8.320;2023-07-31T11:58:42;25.40;1.00
12847;DHT22;6492;48.128;8.320;2023-07-31T12:02:46;26.00;1.00
12847;DHT22;6492;48.128;8.320;2023-07-31T12:06:49;25.90;1.00
12847;DHT22;6492;48.128;8.320;2023-07-31T12:10:54;25.00;1.00
12847;DHT22;6492;48.128;8.320;2023-07-31T12:15:14;24.20;1.00
12847;DHT22;6492;48.128;8.320;2023-07-31T12:19:20;23.50;1.00
12847;DHT22;6492;48.128;8.320;2023-07-31T12:27:55;23.30;1.00
12847;DHT22;6492;48.128;8.320;2023-07-31T12:31:57;23.60;1.00
12847;DHT22;6492;48.128;8.320;2023-07-31T12:36:11;23.90;1.00
12847;DHT22;6492;48.128;8.320;2023-07-31T12:40:14;24.20;1.00
12847;DHT22;6492;48.128;8.320;2023-07-31T12:44:19;24.40;1.00
12847;DHT22;6492;48.128;8.320;2023-07-31T12:48:31;25.10;1.00
12847;DHT22;6492;48.128;8.320;2023-07-31T12:52:39;26.00;1.00
12847;DHT22;6492;48.128;8.320;2023-07-31T12:56:48;27.00;1.00
12847;DHT22;6492;48.128;8.320;2023-07-31T13:00:53;27.00;1.00
12847;DHT22;6492;48.128;8.320;2023-07-31T13:04:58;26.50;1.00
12847;DHT22;6492;48.128;8.320;2023-07-31T13:09:13;26.20;1.00
12847;DHT22;6492;48.128;8.320;2023-07-31T13:13:25;25.80;1.00
12847;DHT22;6492;48.128;8.320;2023-07-31T13:17:30;25.20;1.00
12847;DHT22;6492;48.128;8.320;2023-07-31T13:21:36;24.60;1.00
12847;DHT22;6492;48.128;8.320;2023-07-31T13:25:47;24.40;1.00
12847;DHT22;6492;48.128;8.320;2023-07-31T13:29:59;24.20;1.00
12847;DHT22;6492;48.128;8.320;2023-07-31T13:34:07;23.80;1.00
12847;DHT22;6492;48.128;8.320;2023-07-31T13:38:10;24.00;1.00
12847;DHT22;6492;48.128;8.320;2023-07-31T13:42:15;24.50;1.00
12847;DHT22;6492;48.128;8.320;2023-07-31T13:46:23;24.90;1.00
12847;DHT22;6492;48.128;8.320;2023-07-31T13:50:28;25.00;1.00
12847;DHT22;6492;48.128;8.320;2023-07-31T13:54:37;24.80;1.00
12847;DHT22;6492;48.128;8.320;2023-07-31T13:58:41;24.20;1.00
12847;DHT22;6492;48.128;8.320;2023-07-31T14:02:47;24.00;1.00
12847;DHT22;6492;48.128;8.320;2023-07-31T14:06:50;23.90;1.00
12847;DHT22;6492;48.128;8.320;2023-07-31T14:10:53;24.30;1.00
12847;DHT22;6492;48.128;8.320;2023-07-31T14:15:02;24.70;1.00
12847;DHT22;6492;48.128;8.320;2023-07-31T14:19:11;25.00;1.00
12847;DHT22;6492;48.128;8.320;2023-07-31T14:23:17;24.60;1.00
12847;DHT22;6492;48.128;8.320;2023-07-31T14:27:21;24.50;1.00
12847;DHT22;6492;48.128;8.320;2023-07-31T14:31:25;24.30;1.00
12847;DHT22;6492;48.128;8.320;2023-07-31T14:35:30;24.50;1.00
12847;DHT22;6492;48.128;8.320;2023-07-31T14:39:33;25.00;1.00
12847;DHT22;6492;48.128;8.320;2023-07-31T14:43:36;25.60;1.00
12847;DHT22;6492;48.128;8.320;2023-07-31T14:47:43;25.30;1.00
12847;DHT22;6492;48.128;8.320;2023-07-31T14:51:46;25.00;1.00
12847;DHT22;6492;48.128;8.320;2023-07-31T14:55:48;24.70;1.00
12847;DHT22;6492;48.128;8.320;2023-07-31T14:59:51;24.70;1.00
12847;DHT22;6492;48.128;8.320;2023-07-31T15:03:57;24.20;1.00
12847;DHT22;6492;48.128;8.320;2023-07-31T15:08:00;23.90;1.00
12847;DHT22;6492;48.128;8.320;2023-07-31T15:12:03;23.70;1.00
12847;DHT22;6492;48.128;8.320;2023-07-31T15:16:06;23.70;1.00
12847;DHT22;6492;48.128;8.320;2023-07-31T15:20:11;24.00;1.00
12847;DHT22;6492;48.128;8.320;2023-07-31T15:24:14;24.00;1.00
12847;DHT22;6492;48.128;8.320;2023-07-31T15:28:22;23.70;1.00
12847;DHT22;6492;48.128;8.320;2023-07-31T15:32:25;23.40;1.00
12847;DHT22;6492;48.128;8.320;2023-07-31T15:36:29;23.50;1.00
12847;DHT22;6492;48.128;8.320;2023-07-31T15:40:32;23.80;1.00
12847;DHT22;6492;48.128;8.320;2023-07-31T15:44:37;23.90;1.00
12847;DHT22;6492;48.128;8.320;2023-07-31T15:48:40;24.30;1.00
12847;DHT22;6492;48.128;8.320;2023-07-31T15:52:44;25.00;1.00
12847;DHT22;6492;48.128;8.320;2023-07-31T15:57:01;24.70;1.00
12847;DHT22;6492;48.128;8.320;2023-07-31T16:01:05;24.20;1.00
12847;DHT22;6492;48.128;8.320;2023-07-31T16:05:22;23.90;1.00
12847;DHT22;6492;48.128;8.320;2023-07-31T16:09:38;23.70;1.00
12847;DHT22;6492;48.128;8.320;2023-07-31T16:13:43;23.10;1.00
12847;DHT22;6492;48.128;8.320;2023-07-31T16:17:46;22.70;1.00
12847;DHT22;6492;48.128;8.320;2023-07-31T16:21:51;22.20;1.00
12847;DHT22;6492;48.128;8.320;2023-07-31T16:25:58;21.80;1.00
12847;DHT22;6492;48.128;8.320;2023-07-31T16:30:05;21.50;1.00
12847;DHT22;6492;48.128;8.320;2023-07-31T16:34:10;21.30;1.00
12847;DHT22;6492;48.128;8.320;2023-07-31T16:38:13;21.10;1.00
12847;DHT22;6492;48.128;8.320;2023-07-31T16:42:22;20.90;1.00
12847;DHT22;6492;48.128;8.320;2023-07-31T16:46:27;21.00;1.00
12847;DHT22;6492;48.128;8.320;2023-07-31T16:50:31;21.10;1.00
12847;DHT22;6492;48.128;8.320;2023-07-31T16:54:38;21.00;1.00
12847;DHT22;6492;48.128;8.320;2023-07-31T16:58:42;20.90;1.00
12847;DHT22;6492;48.128;8.320;2023-07-31T17:02:49;20.80;1.00
12847;DHT22;6492;48.128;8.320;2023-07-31T17:06:59;20.60;1.00
12847;DHT22;6492;48.128;8.320;2023-07-31T17:11:06;20.50;1.00
12847;DHT22;6492;48.128;8.320;2023-07-31T17:15:10;20.50;1.00
12847;DHT22;6492;48.128;8.320;2023-07-31T17:19:13;20.70;1.00
12847;DHT22;6492;48.128;8.320;2023-07-31T17:23:20;20.70;1.00
12847;DHT22;6492;48.128;8.320;2023-07-31T17:27:23;20.60;1.00
12847;DHT22;6492;48.128;8.320;2023-07-31T17:31:31;20.40;1.20
12847;DHT22;6492;48.128;8.320;2023-07-31T17:35:36;20.20;1.00
12847;DHT22;6492;48.128;8.320;2023-07-31T17:39:41;20.10;2.00
12847;DHT22;6492;48.128;8.320;2023-07-31T17:43:48;19.90;2.60
12847;DHT22;6492;48.128;8.320;2023-07-31T17:47:53;19.70;2.10
12847;DHT22;6492;48.128;8.320;2023-07-31T17:51:58;19.70;2.90
12847;DHT22;6492;48.128;8.320;2023-07-31T17:56:12;20.00;2.30
12847;DHT22;6492;48.128;8.320;2023-07-31T18:00:21;20.10;1.60
12847;DHT22;6492;48.128;8.320;2023-07-31T18:04:32;19.80;2.30
12847;DHT22;6492;48.128;8.320;2023-07-31T19:33:52;17.10;11.80
12847;DHT22;6492;48.128;8.320;2023-07-31T19:37:53;17.00;11.80
12847;DHT22;6492;48.128;8.320;2023-07-31T19:41:55;17.00;12.20
12847;DHT22;6492;48.128;8.320;2023-07-31T19:45:57;17.00;12.40
12847;DHT22;6492;48.128;8.320;2023-07-31T19:50:00;16.90;13.20
12847;DHT22;6492;48.128;8.320;2023-07-31T19:54:04;16.90;13.00
12847;DHT22;6492;48.128;8.320;2023-07-31T19:58:07;16.90;12.90
12847;DHT22;6492;48.128;8.320;2023-07-31T20:02:09;16.90;12.80
12847;DHT22;6492;48.128;8.320;2023-07-31T20:06:13;16.90;12.40
12847;DHT22;6492;48.128;8.320;2023-07-31T20:10:15;16.90;12.50
12847;DHT22;6492;48.128;8.320;2023-07-31T20:14:17;17.00;12.70
12847;DHT22;6492;48.128;8.320;2023-07-31T20:18:22;17.00;13.50
12847;DHT22;6492;48.128;8.320;2023-07-31T20:22:26;16.90;14.40
12847;DHT22;6492;48.128;8.320;2023-07-31T20:26:28;16.80;15.30
12847;DHT22;6492;48.128;8.320;2023-07-31T20:30:30;16.70;15.80
12847;DHT22;6492;48.128;8.320;2023-07-31T20:34:32;16.60;16.20
12847;DHT22;6492;48.128;8.320;2023-07-31T20:38:35;16.60;16.20
12847;DHT22;6492;48.128;8.320;2023-07-31T20:42:36;16.60;16.70
12847;DHT22;6492;48.128;8.320;2023-07-31T20:46:38;16.50;17.30
12847;DHT22;6492;48.128;8.320;2023-07-31T20:50:40;16.50;17.80
12847;DHT22;6492;48.128;8.320;2023-07-31T20:54:43;16.40;18.00
12847;DHT22;6492;48.128;8.320;2023-07-31T20:58:46;16.30;18.40
12847;DHT22;6492;48.128;8.320;2023-07-31T21:02:49;16.30;18.70
12847;DHT22;6492;48.128;8.320;2023-07-31T21:06:51;16.20;19.10
12847;DHT22;6492;48.128;8.320;2023-07-31T21:10:54;16.20;19.30
12847;DHT22;6492;48.128;8.320;2023-07-31T21:14:56;16.20;18.80
12847;DHT22;6492;48.128;8.320;2023-07-31T21:18:57;16.30;17.60
12847;DHT22;6492;48.128;8.320;2023-07-31T21:22:59;16.40;17.10
12847;DHT22;6492;48.128;8.320;2023-07-31T21:27:11;16.60;16.60
12847;DHT22;6492;48.128;8.320;2023-07-31T21:31:14;16.60;18.00
12847;DHT22;6492;48.128;8.320;2023-07-31T21:35:16;16.60;20.40
12847;DHT22;6492;48.128;8.320;2023-07-31T21:39:19;16.40;21.60
12847;DHT22;6492;48.128;8.320;2023-07-31T21:43:23;16.30;23.30
12847;DHT22;6492;48.128;8.320;2023-07-31T21:47:24;16.10;24.40
12847;DHT22;6492;48.128;8.320;2023-07-31T21:51:26;16.00;24.90
12847;DHT22;6492;48.128;8.320;2023-07-31T21:55:28;15.90;27.20
12847;DHT22;6492;48.128;8.320;2023-07-31T21:59:31;15.80;28.20
12847;DHT22;6492;48.128;8.320;2023-07-31T22:03:33;15.60;29.40
12847;DHT22;6492;48.128;8.320;2023-07-31T22:07:36;15.50;31.00
12847;DHT22;6492;48.128;8.320;2023-07-31T22:11:37;15.40;33.50
12847;DHT22;6492;48.128;8.320;2023-07-31T22:15:40;15.30;36.10
12847;DHT22;6492;48.128;8.320;2023-07-31T22:19:42;15.10;37.60
12847;DHT22;6492;48.128;8.320;2023-07-31T22:23:44;15.00;39.60
12847;DHT22;6492;48.128;8.320;2023-07-31T22:27:46;14.90;41.60
12847;DHT22;6492;48.128;8.320;2023-07-31T22:31:49;14.80;43.80
12847;DHT22;6492;48.128;8.320;2023-07-31T22:35:51;14.70;45.00
12847;DHT22;6492;48.128;8.320;2023-07-31T22:39:53;14.60;46.50
12847;DHT22;6492;48.128;8.320;2023-07-31T22:43:54;14.60;45.60
12847;DHT22;6492;48.128;8.320;2023-07-31T22:47:57;14.50;45.40
12847;DHT22;6492;48.128;8.320;2023-07-31T22:51:59;14.50;45.00
12847;DHT22;6492;48.128;8.320;2023-07-31T22:56:04;14.50;46.90
12847;DHT22;6492;48.128;8.320;2023-07-31T23:00:07;14.40;47.40
12847;DHT22;6492;48.128;8.320;2023-07-31T23:04:11;14.40;47.20
12847;DHT22;6492;48.128;8.320;2023-07-31T23:08:13;14.40;48.90
12847;DHT22;6492;48.128;8.320;2023-07-31T23:12:15;14.40;49.00
12847;DHT22;6492;48.128;8.320;2023-07-31T23:16:16;14.40;49.20
12847;DHT22;6492;48.128;8.320;2023-07-31T23:20:19;14.30;50.60
12847;DHT22;6492;48.128;8.320;2023-07-31T23:24:21;14.30;49.90
12847;DHT22;6492;48.128;8.320;2023-07-31T23:28:23;14.30;50.10
12847;DHT22;6492;48.128;8.320;2023-07-31T23:32:25;14.30;51.20
12847;DHT22;6492;48.128;8.320;2023-07-31T23:36:28;14.30;49.60
12847;DHT22;6492;48.128;8.320;2023-07-31T23:40:30;14.30;49.70
12847;DHT22;6492;48.128;8.320;2023-07-31T23:44:33;14.30;50.80
12847;DHT22;6492;48.128;8.320;2023-07-31T23:48:35;14.30;50.10
12847;DHT22;6492;48.128;8.320;2023-07-31T23:52:38;14.30;51.00
12847;DHT22;6492;48.128;8.320;2023-07-31T23:56:40;14.40;50.70
